sensor_id;sensor_type;location;lat;lon;timestamp;P1;durP1;ratioP1;P2;durP2;ratioP2
68608;SDS011;55581;46.718;7.690;2023-07-29T00:00:42;5.47;;;2.30;;
68608;SDS011;55581;46.718;7.690;2023-07-29T00:03:08;9.43;;;2.65;;
68608;SDS011;55581;46.718;7.690;2023-07-29T00:05:34;6.15;;;2.30;;
68608;SDS011;55581;46.718;7.690;2023-07-29T00:08:00;5.10;;;2.40;;
68608;SDS011;55581;46.718;7.690;2023-07-29T00:10:26;5.22;;;2.28;;
68608;SDS011;55581;46.718;7.690;2023-07-29T00:12:52;6.72;;;2.60;;
68608;SDS011;55581;46.718;7.690;2023-07-29T00:15:17;6.63;;;2.40;;
68608;SDS011;55581;46.718;7.690;2023-07-29T00:17:43;6.90;;;2.47;;
68608;SDS011;55581;46.718;7.690;2023-07-29T00:20:08;5.45;;;2.28;;
68608;SDS011;55581;46.718;7.690;2023-07-29T00:22:36;6.20;;;2.70;;
68608;SDS011;55581;46.718;7.690;2023-07-29T00:25:05;5.60;;;2.30;;
68608;SDS011;55581;46.718;7.690;2023-07-29T00:27:30;8.10;;;2.40;;
68608;SDS011;55581;46.718;7.690;2023-07-29T00:29:56;4.70;;;2.00;;
68608;SDS011;55581;46.718;7.690;2023-07-29T00:32:23;6.13;;;2.90;;
68608;SDS011;55581;46.718;7.690;2023-07-29T00:34:52;5.00;;;2.40;;
68608;SDS011;55581;46.718;7.690;2023-07-29T00:37:19;6.20;;;2.30;;
68608;SDS011;55581;46.718;7.690;2023-07-29T00:39:45;7.73;;;2.53;;
68608;SDS011;55581;46.718;7.690;2023-07-29T00:42:10;5.53;;;2.70;;
68608;SDS011;55581;46.718;7.690;2023-07-29T00:44:36;5.63;;;2.27;;
68608;SDS011;55581;46.718;7.690;2023-07-29T00:47:03;4.95;;;2.10;;
68608;SDS011;55581;46.718;7.690;2023-07-29T00:49:30;6.23;;;2.47;;
68608;SDS011;55581;46.718;7.690;2023-07-29T00:51:56;7.70;;;2.88;;
68608;SDS011;55581;46.718;7.690;2023-07-29T00:54:22;7.00;;;2.40;;
68608;SDS011;55581;46.718;7.690;2023-07-29T00:56:47;5.32;;;2.20;;
68608;SDS011;55581;46.718;7.690;2023-07-29T00:59:13;7.90;;;2.67;;
68608;SDS011;55581;46.718;7.690;2023-07-29T01:01:38;6.70;;;2.37;;
68608;SDS011;55581;46.718;7.690;2023-07-29T01:04:04;7.18;;;2.38;;
68608;SDS011;55581;46.718;7.690;2023-07-29T01:06:33;7.20;;;2.43;;
68608;SDS011;55581;46.718;7.690;2023-07-29T01:09:19;5.35;;;2.42;;
68608;SDS011;55581;46.718;7.690;2023-07-29T01:12:02;6.00;;;2.35;;
68608;SDS011;55581;46.718;7.690;2023-07-29T01:14:38;6.67;;;2.60;;
68608;SDS011;55581;46.718;7.690;2023-07-29T01:17:10;6.63;;;2.60;;
68608;SDS011;55581;46.718;7.690;2023-07-29T01:20:00;5.60;;;2.38;;
68608;SDS011;55581;46.718;7.690;2023-07-29T01:22:31;6.65;;;2.63;;
68608;SDS011;55581;46.718;7.690;2023-07-29T01:24:58;5.78;;;2.22;;
68608;SDS011;55581;46.718;7.690;2023-07-29T01:27:24;6.30;;;2.33;;
68608;SDS011;55581;46.718;7.690;2023-07-29T01:29:52;6.13;;;2.92;;
68608;SDS011;55581;46.718;7.690;2023-07-29T01:35:42;7.37;;;2.20;;
68608;SDS011;55581;46.718;7.690;2023-07-29T01:38:05;8.13;;;2.70;;
68608;SDS011;55581;46.718;7.690;2023-07-29T01:40:37;6.65;;;2.75;;
68608;SDS011;55581;46.718;7.690;2023-07-29T01:43:03;6.93;;;2.93;;
68608;SDS011;55581;46.718;7.690;2023-07-29T01:45:28;6.60;;;2.80;;
68608;SDS011;55581;46.718;7.690;2023-07-29T01:47:56;7.45;;;2.63;;
68608;SDS011;55581;46.718;7.690;2023-07-29T01:50:22;5.93;;;2.63;;
68608;SDS011;55581;46.718;7.690;2023-07-29T01:52:47;5.43;;;2.83;;
68608;SDS011;55581;46.718;7.690;2023-07-29T01:55:13;9.60;;;3.20;;
68608;SDS011;55581;46.718;7.690;2023-07-29T01:57:38;6.43;;;2.20;;
68608;SDS011;55581;46.718;7.690;2023-07-29T02:00:06;6.65;;;2.70;;
68608;SDS011;55581;46.718;7.690;2023-07-29T02:02:33;6.53;;;2.60;;
68608;SDS011;55581;46.718;7.690;2023-07-29T02:04:58;6.87;;;2.90;;
68608;SDS011;55581;46.718;7.690;2023-07-29T02:07:23;6.63;;;2.53;;
68608;SDS011;55581;46.718;7.690;2023-07-29T02:09:51;5.60;;;2.17;;
68608;SDS011;55581;46.718;7.690;2023-07-29T02:12:17;7.17;;;3.20;;
68608;SDS011;55581;46.718;7.690;2023-07-29T02:14:44;5.68;;;2.78;;
68608;SDS011;55581;46.718;7.690;2023-07-29T02:17:12;6.20;;;2.67;;
68608;SDS011;55581;46.718;7.690;2023-07-29T02:19:38;9.52;;;3.38;;
68608;SDS011;55581;46.718;7.690;2023-07-29T02:22:03;6.67;;;2.83;;
68608;SDS011;55581;46.718;7.690;2023-07-29T02:24:31;6.10;;;2.80;;
68608;SDS011;55581;46.718;7.690;2023-07-29T02:26:57;7.83;;;2.47;;
68608;SDS011;55581;46.718;7.690;2023-07-29T02:29:22;7.15;;;2.97;;
68608;SDS011;55581;46.718;7.690;2023-07-29T02:31:48;5.53;;;2.47;;
68608;SDS011;55581;46.718;7.690;2023-07-29T02:34:13;5.67;;;2.70;;
68608;SDS011;55581;46.718;7.690;2023-07-29T02:36:39;6.78;;;2.88;;
68608;SDS011;55581;46.718;7.690;2023-07-29T02:39:04;7.13;;;2.60;;
68608;SDS011;55581;46.718;7.690;2023-07-29T02:41:31;9.07;;;3.00;;
68608;SDS011;55581;46.718;7.690;2023-07-29T02:44:01;6.70;;;2.85;;
68608;SDS011;55581;46.718;7.690;2023-07-29T02:46:27;5.87;;;2.70;;
68608;SDS011;55581;46.718;7.690;2023-07-29T02:48:52;6.38;;;2.80;;
68608;SDS011;55581;46.718;7.690;2023-07-29T02:51:18;5.33;;;2.40;;
68608;SDS011;55581;46.718;7.690;2023-07-29T02:53:43;6.00;;;2.60;;
68608;SDS011;55581;46.718;7.690;2023-07-29T02:56:11;6.00;;;3.00;;
68608;SDS011;55581;46.718;7.690;2023-07-29T02:58:36;6.53;;;2.60;;
68608;SDS011;55581;46.718;7.690;2023-07-29T03:01:03;5.53;;;2.58;;
68608;SDS011;55581;46.718;7.690;2023-07-29T03:03:29;5.97;;;2.90;;
68608;SDS011;55581;46.718;7.690;2023-07-29T03:06:02;5.33;;;2.60;;
68608;SDS011;55581;46.718;7.690;2023-07-29T03:08:29;8.77;;;2.60;;
68608;SDS011;55581;46.718;7.690;2023-07-29T03:10:55;7.60;;;2.60;;
68608;SDS011;55581;46.718;7.690;2023-07-29T03:13:21;6.82;;;3.10;;
68608;SDS011;55581;46.718;7.690;2023-07-29T03:15:46;6.13;;;3.07;;
68608;SDS011;55581;46.718;7.690;2023-07-29T03:18:12;10.10;;;3.00;;
68608;SDS011;55581;46.718;7.690;2023-07-29T03:20:37;5.80;;;2.77;;
68608;SDS011;55581;46.718;7.690;2023-07-29T03:23:05;5.53;;;2.88;;
68608;SDS011;55581;46.718;7.690;2023-07-29T03:25:30;6.60;;;3.20;;
68608;SDS011;55581;46.718;7.690;2023-07-29T03:27:56;7.00;;;2.83;;
68608;SDS011;55581;46.718;7.690;2023-07-29T03:30:22;5.80;;;2.90;;
68608;SDS011;55581;46.718;7.690;2023-07-29T03:32:51;6.47;;;3.17;;
68608;SDS011;55581;46.718;7.690;2023-07-29T03:35:16;5.75;;;2.63;;
68608;SDS011;55581;46.718;7.690;2023-07-29T03:37:42;6.82;;;3.10;;
68608;SDS011;55581;46.718;7.690;2023-07-29T03:40:07;6.80;;;3.07;;
68608;SDS011;55581;46.718;7.690;2023-07-29T03:42:34;6.53;;;3.35;;
68608;SDS011;55581;46.718;7.690;2023-07-29T03:45:02;7.10;;;2.83;;
68608;SDS011;55581;46.718;7.690;2023-07-29T03:47:28;8.50;;;3.30;;
68608;SDS011;55581;46.718;7.690;2023-07-29T03:49:56;8.45;;;3.10;;
68608;SDS011;55581;46.718;7.690;2023-07-29T03:52:21;5.73;;;2.83;;
68608;SDS011;55581;46.718;7.690;2023-07-29T03:54:49;6.93;;;2.70;;
68608;SDS011;55581;46.718;7.690;2023-07-29T03:57:15;6.38;;;3.13;;
68608;SDS011;55581;46.718;7.690;2023-07-29T03:59:40;8.83;;;3.10;;
68608;SDS011;55581;46.718;7.690;2023-07-29T04:02:05;8.65;;;3.30;;
68608;SDS011;55581;46.718;7.690;2023-07-29T04:04:31;5.20;;;2.40;;
68608;SDS011;55581;46.718;7.690;2023-07-29T04:06:59;9.15;;;2.78;;
68608;SDS011;55581;46.718;7.690;2023-07-29T04:09:24;5.80;;;2.93;;
68608;SDS011;55581;46.718;7.690;2023-07-29T04:11:50;5.73;;;2.73;;
68608;SDS011;55581;46.718;7.690;2023-07-29T04:14:16;7.60;;;3.00;;
68608;SDS011;55581;46.718;7.690;2023-07-29T04:16:41;6.50;;;2.80;;
68608;SDS011;55581;46.718;7.690;2023-07-29T04:19:06;5.50;;;2.40;;
68608;SDS011;55581;46.718;7.690;2023-07-29T04:21:32;5.50;;;2.50;;
68608;SDS011;55581;46.718;7.690;2023-07-29T04:24:00;7.00;;;3.33;;
68608;SDS011;55581;46.718;7.690;2023-07-29T04:26:26;7.53;;;3.15;;
68608;SDS011;55581;46.718;7.690;2023-07-29T04:28:51;9.47;;;3.37;;
68608;SDS011;55581;46.718;7.690;2023-07-29T04:31:19;7.38;;;2.72;;
68608;SDS011;55581;46.718;7.690;2023-07-29T04:33:44;5.40;;;2.60;;
68608;SDS011;55581;46.718;7.690;2023-07-29T04:36:12;6.00;;;2.90;;
68608;SDS011;55581;46.718;7.690;2023-07-29T04:38:40;5.93;;;3.13;;
68608;SDS011;55581;46.718;7.690;2023-07-29T04:41:05;9.35;;;3.08;;
68608;SDS011;55581;46.718;7.690;2023-07-29T04:43:32;8.05;;;3.30;;
68608;SDS011;55581;46.718;7.690;2023-07-29T04:45:58;5.87;;;2.73;;
68608;SDS011;55581;46.718;7.690;2023-07-29T04:48:26;6.30;;;3.05;;
68608;SDS011;55581;46.718;7.690;2023-07-29T04:50:52;7.93;;;3.20;;
68608;SDS011;55581;46.718;7.690;2023-07-29T04:53:17;6.93;;;3.10;;
68608;SDS011;55581;46.718;7.690;2023-07-29T04:55:43;5.50;;;2.40;;
68608;SDS011;55581;46.718;7.690;2023-07-29T04:58:08;7.30;;;3.20;;
68608;SDS011;55581;46.718;7.690;2023-07-29T05:00:34;7.32;;;3.38;;
68608;SDS011;55581;46.718;7.690;2023-07-29T05:03:00;6.73;;;2.83;;
68608;SDS011;55581;46.718;7.690;2023-07-29T05:05:27;8.02;;;2.95;;
68608;SDS011;55581;46.718;7.690;2023-07-29T05:07:53;8.00;;;2.80;;
68608;SDS011;55581;46.718;7.690;2023-07-29T05:10:18;7.73;;;2.83;;
68608;SDS011;55581;46.718;7.690;2023-07-29T05:12:48;7.00;;;2.95;;
68608;SDS011;55581;46.718;7.690;2023-07-29T05:15:14;6.43;;;3.13;;
68608;SDS011;55581;46.718;7.690;2023-07-29T05:17:39;5.38;;;2.63;;
68608;SDS011;55581;46.718;7.690;2023-07-29T05:20:05;8.80;;;3.27;;
68608;SDS011;55581;46.718;7.690;2023-07-29T05:22:33;6.18;;;2.80;;
68608;SDS011;55581;46.718;7.690;2023-07-29T05:25:01;6.18;;;2.65;;
68608;SDS011;55581;46.718;7.690;2023-07-29T05:27:27;7.17;;;3.20;;
68608;SDS011;55581;46.718;7.690;2023-07-29T05:29:52;6.97;;;2.73;;
68608;SDS011;55581;46.718;7.690;2023-07-29T05:32:18;9.13;;;3.50;;
68608;SDS011;55581;46.718;7.690;2023-07-29T05:34:45;7.18;;;2.97;;
68608;SDS011;55581;46.718;7.690;2023-07-29T05:37:11;7.10;;;3.10;;
68608;SDS011;55581;46.718;7.690;2023-07-29T05:39:36;6.80;;;2.70;;
68608;SDS011;55581;46.718;7.690;2023-07-29T05:42:02;7.75;;;2.95;;
68608;SDS011;55581;46.718;7.690;2023-07-29T05:44:28;7.13;;;2.93;;
68608;SDS011;55581;46.718;7.690;2023-07-29T05:46:55;6.63;;;3.00;;
68608;SDS011;55581;46.718;7.690;2023-07-29T05:49:21;6.90;;;2.80;;
68608;SDS011;55581;46.718;7.690;2023-07-29T05:51:48;7.80;;;3.00;;
68608;SDS011;55581;46.718;7.690;2023-07-29T05:54:15;5.22;;;2.35;;
68608;SDS011;55581;46.718;7.690;2023-07-29T05:56:45;6.40;;;2.60;;
68608;SDS011;55581;46.718;7.690;2023-07-29T05:59:12;5.70;;;2.67;;
68608;SDS011;55581;46.718;7.690;2023-07-29T06:01:40;7.77;;;3.13;;
68608;SDS011;55581;46.718;7.690;2023-07-29T06:04:05;5.70;;;2.80;;
68608;SDS011;55581;46.718;7.690;2023-07-29T06:06:31;5.47;;;2.83;;
68608;SDS011;55581;46.718;7.690;2023-07-29T06:08:56;5.90;;;2.80;;
68608;SDS011;55581;46.718;7.690;2023-07-29T06:11:23;5.63;;;2.53;;
68608;SDS011;55581;46.718;7.690;2023-07-29T06:13:48;6.87;;;2.80;;
68608;SDS011;55581;46.718;7.690;2023-07-29T06:16:13;5.90;;;2.63;;
68608;SDS011;55581;46.718;7.690;2023-07-29T06:18:39;6.93;;;2.83;;
68608;SDS011;55581;46.718;7.690;2023-07-29T06:21:07;5.03;;;2.40;;
68608;SDS011;55581;46.718;7.690;2023-07-29T06:23:32;5.97;;;2.63;;
68608;SDS011;55581;46.718;7.690;2023-07-29T06:25:58;8.03;;;2.80;;
68608;SDS011;55581;46.718;7.690;2023-07-29T06:28:26;5.45;;;2.47;;
68608;SDS011;55581;46.718;7.690;2023-07-29T06:30:52;7.07;;;3.00;;
68608;SDS011;55581;46.718;7.690;2023-07-29T06:33:20;5.78;;;2.60;;
68608;SDS011;55581;46.718;7.690;2023-07-29T06:35:48;6.32;;;2.72;;
68608;SDS011;55581;46.718;7.690;2023-07-29T06:38:13;5.67;;;2.60;;
68608;SDS011;55581;46.718;7.690;2023-07-29T06:40:39;6.38;;;2.80;;
68608;SDS011;55581;46.718;7.690;2023-07-29T06:43:04;5.80;;;2.47;;
68608;SDS011;55581;46.718;7.690;2023-07-29T06:45:30;6.50;;;2.80;;
68608;SDS011;55581;46.718;7.690;2023-07-29T06:47:55;5.70;;;2.53;;
68608;SDS011;55581;46.718;7.690;2023-07-29T06:50:21;6.83;;;2.90;;
68608;SDS011;55581;46.718;7.690;2023-07-29T06:52:46;5.90;;;2.67;;
68608;SDS011;55581;46.718;7.690;2023-07-29T06:55:11;6.03;;;2.70;;
68608;SDS011;55581;46.718;7.690;2023-07-29T06:57:37;6.27;;;2.50;;
68608;SDS011;55581;46.718;7.690;2023-07-29T07:00:03;5.75;;;2.55;;
68608;SDS011;55581;46.718;7.690;2023-07-29T07:02:29;8.85;;;3.90;;
68608;SDS011;55581;46.718;7.690;2023-07-29T07:04:56;6.23;;;2.80;;
68608;SDS011;55581;46.718;7.690;2023-07-29T07:07:22;7.05;;;2.60;;
68608;SDS011;55581;46.718;7.690;2023-07-29T07:09:49;6.30;;;2.80;;
68608;SDS011;55581;46.718;7.690;2023-07-29T07:12:15;6.18;;;2.97;;
68608;SDS011;55581;46.718;7.690;2023-07-29T07:14:40;5.90;;;2.87;;
68608;SDS011;55581;46.718;7.690;2023-07-29T07:17:06;7.40;;;3.07;;
68608;SDS011;55581;46.718;7.690;2023-07-29T07:19:31;5.93;;;2.87;;
68608;SDS011;55581;46.718;7.690;2023-07-29T07:21:56;5.47;;;2.80;;
68608;SDS011;55581;46.718;7.690;2023-07-29T07:24:24;7.73;;;3.40;;
68608;SDS011;55581;46.718;7.690;2023-07-29T07:26:54;6.75;;;3.70;;
68608;SDS011;55581;46.718;7.690;2023-07-29T07:29:19;7.20;;;3.10;;
68608;SDS011;55581;46.718;7.690;2023-07-29T07:31:49;5.70;;;2.60;;
68608;SDS011;55581;46.718;7.690;2023-07-29T07:34:20;8.50;;;3.13;;
68608;SDS011;55581;46.718;7.690;2023-07-29T07:36:46;7.15;;;3.20;;
68608;SDS011;55581;46.718;7.690;2023-07-29T07:39:14;6.43;;;2.95;;
68608;SDS011;55581;46.718;7.690;2023-07-29T07:41:44;7.78;;;3.70;;
68608;SDS011;55581;46.718;7.690;2023-07-29T07:44:09;6.53;;;3.30;;
68608;SDS011;55581;46.718;7.690;2023-07-29T07:46:36;6.93;;;3.27;;
68608;SDS011;55581;46.718;7.690;2023-07-29T07:49:01;6.30;;;3.38;;
68608;SDS011;55581;46.718;7.690;2023-07-29T07:51:26;8.77;;;4.53;;
68608;SDS011;55581;46.718;7.690;2023-07-29T07:53:52;6.03;;;3.53;;
68608;SDS011;55581;46.718;7.690;2023-07-29T07:56:20;7.10;;;2.93;;
68608;SDS011;55581;46.718;7.690;2023-07-29T07:58:45;10.60;;;4.82;;
68608;SDS011;55581;46.718;7.690;2023-07-29T08:01:10;7.27;;;4.20;;
68608;SDS011;55581;46.718;7.690;2023-07-29T08:03:36;9.95;;;3.90;;
68608;SDS011;55581;46.718;7.690;2023-07-29T08:06:02;7.47;;;3.47;;
68608;SDS011;55581;46.718;7.690;2023-07-29T08:08:28;7.15;;;3.50;;
68608;SDS011;55581;46.718;7.690;2023-07-29T08:10:54;6.10;;;3.28;;
68608;SDS011;55581;46.718;7.690;2023-07-29T08:13:23;5.57;;;2.92;;
68608;SDS011;55581;46.718;7.690;2023-07-29T08:15:49;6.37;;;2.83;;
68608;SDS011;55581;46.718;7.690;2023-07-29T08:18:19;5.00;;;2.78;;
68608;SDS011;55581;46.718;7.690;2023-07-29T08:20:52;6.20;;;2.80;;
68608;SDS011;55581;46.718;7.690;2023-07-29T08:23:23;5.75;;;2.95;;
68608;SDS011;55581;46.718;7.690;2023-07-29T08:25:54;6.28;;;2.95;;
68608;SDS011;55581;46.718;7.690;2023-07-29T08:28:21;6.60;;;3.07;;
68608;SDS011;55581;46.718;7.690;2023-07-29T08:30:47;6.50;;;3.30;;
68608;SDS011;55581;46.718;7.690;2023-07-29T08:33:13;7.32;;;3.15;;
68608;SDS011;55581;46.718;7.690;2023-07-29T08:35:39;5.10;;;2.77;;
68608;SDS011;55581;46.718;7.690;2023-07-29T08:38:04;5.78;;;3.00;;
68608;SDS011;55581;46.718;7.690;2023-07-29T08:40:30;8.00;;;3.13;;
68608;SDS011;55581;46.718;7.690;2023-07-29T08:43:03;5.97;;;2.92;;
68608;SDS011;55581;46.718;7.690;2023-07-29T08:45:34;5.45;;;3.15;;
68608;SDS011;55581;46.718;7.690;2023-07-29T08:48:07;5.23;;;3.10;;
68608;SDS011;55581;46.718;7.690;2023-07-29T08:50:35;5.97;;;2.95;;
68608;SDS011;55581;46.718;7.690;2023-07-29T08:53:03;6.28;;;3.08;;
68608;SDS011;55581;46.718;7.690;2023-07-29T08:55:29;9.05;;;3.55;;
68608;SDS011;55581;46.718;7.690;2023-07-29T08:57:55;6.75;;;3.17;;
68608;SDS011;55581;46.718;7.690;2023-07-29T09:00:23;5.90;;;3.10;;
68608;SDS011;55581;46.718;7.690;2023-07-29T09:02:50;6.18;;;3.10;;
68608;SDS011;55581;46.718;7.690;2023-07-29T09:05:18;5.53;;;3.05;;
68608;SDS011;55581;46.718;7.690;2023-07-29T09:07:46;7.07;;;2.90;;
68608;SDS011;55581;46.718;7.690;2023-07-29T09:10:15;7.05;;;3.13;;
68608;SDS011;55581;46.718;7.690;2023-07-29T09:12:40;5.73;;;2.90;;
68608;SDS011;55581;46.718;7.690;2023-07-29T09:15:06;5.93;;;2.97;;
68608;SDS011;55581;46.718;7.690;2023-07-29T09:17:35;6.18;;;2.95;;
68608;SDS011;55581;46.718;7.690;2023-07-29T09:20:02;6.07;;;2.97;;
68608;SDS011;55581;46.718;7.690;2023-07-29T09:22:28;5.73;;;3.13;;
68608;SDS011;55581;46.718;7.690;2023-07-29T09:24:53;8.60;;;3.25;;
68608;SDS011;55581;46.718;7.690;2023-07-29T09:27:27;7.40;;;3.30;;
68608;SDS011;55581;46.718;7.690;2023-07-29T09:29:56;5.95;;;3.25;;
68608;SDS011;55581;46.718;7.690;2023-07-29T09:32:24;6.00;;;3.25;;
68608;SDS011;55581;46.718;7.690;2023-07-29T09:34:50;6.22;;;3.13;;
68608;SDS011;55581;46.718;7.690;2023-07-29T09:37:18;6.22;;;3.22;;
68608;SDS011;55581;46.718;7.690;2023-07-29T09:39:46;5.77;;;2.90;;
68608;SDS011;55581;46.718;7.690;2023-07-29T09:42:17;6.10;;;3.20;;
68608;SDS011;55581;46.718;7.690;2023-07-29T09:44:43;6.18;;;3.25;;
68608;SDS011;55581;46.718;7.690;2023-07-29T09:47:09;8.97;;;3.57;;
68608;SDS011;55581;46.718;7.690;2023-07-29T09:49:35;6.43;;;3.47;;
68608;SDS011;55581;46.718;7.690;2023-07-29T09:52:03;7.00;;;3.30;;
68608;SDS011;55581;46.718;7.690;2023-07-29T09:54:30;9.20;;;3.63;;
68608;SDS011;55581;46.718;7.690;2023-07-29T09:56:56;6.97;;;3.40;;
68608;SDS011;55581;46.718;7.690;2023-07-29T09:59:22;6.07;;;3.43;;
68608;SDS011;55581;46.718;7.690;2023-07-29T10:01:50;8.15;;;3.65;;
68608;SDS011;55581;46.718;7.690;2023-07-29T10:04:16;8.70;;;4.03;;
68608;SDS011;55581;46.718;7.690;2023-07-29T10:06:42;8.43;;;3.93;;
68608;SDS011;55581;46.718;7.690;2023-07-29T10:09:08;6.07;;;3.50;;
68608;SDS011;55581;46.718;7.690;2023-07-29T10:11:37;7.15;;;3.40;;
68608;SDS011;55581;46.718;7.690;2023-07-29T10:14:02;5.93;;;3.40;;
68608;SDS011;55581;46.718;7.690;2023-07-29T10:16:30;7.70;;;3.60;;
68608;SDS011;55581;46.718;7.690;2023-07-29T10:18:56;7.28;;;3.60;;
68608;SDS011;55581;46.718;7.690;2023-07-29T10:21:24;8.00;;;3.53;;
68608;SDS011;55581;46.718;7.690;2023-07-29T10:23:53;7.15;;;3.72;;
68608;SDS011;55581;46.718;7.690;2023-07-29T10:26:23;7.07;;;3.67;;
68608;SDS011;55581;46.718;7.690;2023-07-29T10:28:50;6.13;;;3.38;;
68608;SDS011;55581;46.718;7.690;2023-07-29T10:31:18;6.25;;;3.60;;
68608;SDS011;55581;46.718;7.690;2023-07-29T10:33:47;6.13;;;3.67;;
68608;SDS011;55581;46.718;7.690;2023-07-29T10:36:14;6.15;;;3.35;;
68608;SDS011;55581;46.718;7.690;2023-07-29T10:38:40;6.80;;;3.65;;
68608;SDS011;55581;46.718;7.690;2023-07-29T10:41:06;6.15;;;3.10;;
68608;SDS011;55581;46.718;7.690;2023-07-29T10:43:32;6.03;;;3.50;;
68608;SDS011;55581;46.718;7.690;2023-07-29T10:46:15;6.13;;;3.50;;
68608;SDS011;55581;46.718;7.690;2023-07-29T10:51:31;7.13;;;3.63;;
68608;SDS011;55581;46.718;7.690;2023-07-29T10:54:12;6.65;;;3.13;;
68608;SDS011;55581;46.718;7.690;2023-07-29T10:56:42;5.72;;;3.42;;
68608;SDS011;55581;46.718;7.690;2023-07-29T11:01:38;5.97;;;3.50;;
68608;SDS011;55581;46.718;7.690;2023-07-29T11:12:39;5.87;;;3.70;;
68608;SDS011;55581;46.718;7.690;2023-07-29T11:17:38;6.25;;;3.55;;
68608;SDS011;55581;46.718;7.690;2023-07-29T11:20:05;7.65;;;3.50;;
68608;SDS011;55581;46.718;7.690;2023-07-29T11:22:33;6.85;;;3.63;;
68608;SDS011;55581;46.718;7.690;2023-07-29T11:24:58;5.70;;;3.10;;
68608;SDS011;55581;46.718;7.690;2023-07-29T11:27:24;6.10;;;3.40;;
68608;SDS011;55581;46.718;7.690;2023-07-29T11:29:49;6.57;;;3.55;;
68608;SDS011;55581;46.718;7.690;2023-07-29T11:32:15;7.43;;;3.13;;
68608;SDS011;55581;46.718;7.690;2023-07-29T11:34:41;6.75;;;3.42;;
68608;SDS011;55581;46.718;7.690;2023-07-29T11:37:08;5.87;;;2.77;;
68608;SDS011;55581;46.718;7.690;2023-07-29T11:39:41;7.60;;;3.67;;
68608;SDS011;55581;46.718;7.690;2023-07-29T11:42:10;6.30;;;3.97;;
68608;SDS011;55581;46.718;7.690;2023-07-29T11:44:36;6.50;;;3.70;;
68608;SDS011;55581;46.718;7.690;2023-07-29T11:47:05;6.07;;;3.70;;
68608;SDS011;55581;46.718;7.690;2023-07-29T11:49:35;6.40;;;3.78;;
68608;SDS011;55581;46.718;7.690;2023-07-29T11:52:03;9.10;;;4.10;;
68608;SDS011;55581;46.718;7.690;2023-07-29T11:54:31;7.00;;;3.50;;
68608;SDS011;55581;46.718;7.690;2023-07-29T11:56:56;5.40;;;3.30;;
68608;SDS011;55581;46.718;7.690;2023-07-29T11:59:22;6.28;;;3.53;;
68608;SDS011;55581;46.718;7.690;2023-07-29T12:01:48;6.20;;;3.20;;
68608;SDS011;55581;46.718;7.690;2023-07-29T12:04:16;5.32;;;2.92;;
68608;SDS011;55581;46.718;7.690;2023-07-29T12:06:41;6.25;;;3.40;;
68608;SDS011;55581;46.718;7.690;2023-07-29T12:09:07;5.87;;;3.37;;
68608;SDS011;55581;46.718;7.690;2023-07-29T12:11:34;5.88;;;3.10;;
68608;SDS011;55581;46.718;7.690;2023-07-29T12:14:00;4.95;;;2.55;;
68608;SDS011;55581;46.718;7.690;2023-07-29T12:16:26;4.50;;;2.60;;
68608;SDS011;55581;46.718;7.690;2023-07-29T12:18:51;4.60;;;2.10;;
68608;SDS011;55581;46.718;7.690;2023-07-29T12:21:17;4.30;;;1.87;;
68608;SDS011;55581;46.718;7.690;2023-07-29T12:23:44;4.45;;;2.00;;
68608;SDS011;55581;46.718;7.690;2023-07-29T12:26:09;3.80;;;1.73;;
68608;SDS011;55581;46.718;7.690;2023-07-29T12:28:35;4.00;;;1.70;;
68608;SDS011;55581;46.718;7.690;2023-07-29T12:31:06;3.67;;;1.50;;
68608;SDS011;55581;46.718;7.690;2023-07-29T12:33:35;4.32;;;1.90;;
68608;SDS011;55581;46.718;7.690;2023-07-29T12:36:04;4.47;;;2.30;;
68608;SDS011;55581;46.718;7.690;2023-07-29T12:38:30;5.07;;;2.40;;
68608;SDS011;55581;46.718;7.690;2023-07-29T12:40:55;4.13;;;1.42;;
68608;SDS011;55581;46.718;7.690;2023-07-29T12:43:21;4.07;;;1.43;;
68608;SDS011;55581;46.718;7.690;2023-07-29T12:45:49;4.00;;;1.52;;
68608;SDS011;55581;46.718;7.690;2023-07-29T12:48:15;3.80;;;1.53;;
68608;SDS011;55581;46.718;7.690;2023-07-29T12:50:40;3.45;;;1.40;;
68608;SDS011;55581;46.718;7.690;2023-07-29T12:53:06;3.60;;;1.67;;
68608;SDS011;55581;46.718;7.690;2023-07-29T12:55:35;3.30;;;1.42;;
68608;SDS011;55581;46.718;7.690;2023-07-29T12:58:00;4.53;;;1.80;;
68608;SDS011;55581;46.718;7.690;2023-07-29T13:00:26;3.93;;;1.27;;
68608;SDS011;55581;46.718;7.690;2023-07-29T13:02:52;3.00;;;1.27;;
68608;SDS011;55581;46.718;7.690;2023-07-29T13:05:17;3.72;;;1.30;;
68608;SDS011;55581;46.718;7.690;2023-07-29T13:07:45;3.17;;;1.20;;
68608;SDS011;55581;46.718;7.690;2023-07-29T13:10:13;2.80;;;1.00;;
68608;SDS011;55581;46.718;7.690;2023-07-29T13:12:41;3.17;;;1.27;;
68608;SDS011;55581;46.718;7.690;2023-07-29T13:15:06;3.40;;;1.65;;
68608;SDS011;55581;46.718;7.690;2023-07-29T13:17:36;3.60;;;1.45;;
68608;SDS011;55581;46.718;7.690;2023-07-29T13:20:02;3.00;;;1.15;;
68608;SDS011;55581;46.718;7.690;2023-07-29T13:22:28;4.23;;;1.30;;
68608;SDS011;55581;46.718;7.690;2023-07-29T13:24:54;3.43;;;1.43;;
68608;SDS011;55581;46.718;7.690;2023-07-29T13:27:19;3.72;;;1.42;;
68608;SDS011;55581;46.718;7.690;2023-07-29T13:29:44;3.40;;;1.50;;
68608;SDS011;55581;46.718;7.690;2023-07-29T13:32:12;4.13;;;1.40;;
68608;SDS011;55581;46.718;7.690;2023-07-29T13:34:37;3.17;;;1.10;;
68608;SDS011;55581;46.718;7.690;2023-07-29T13:37:05;4.00;;;1.48;;
68608;SDS011;55581;46.718;7.690;2023-07-29T13:39:31;8.45;;;5.20;;
68608;SDS011;55581;46.718;7.690;2023-07-29T13:41:56;3.87;;;1.90;;
68608;SDS011;55581;46.718;7.690;2023-07-29T13:44:22;5.97;;;1.75;;
68608;SDS011;55581;46.718;7.690;2023-07-29T13:46:47;3.33;;;1.27;;
68608;SDS011;55581;46.718;7.690;2023-07-29T13:49:13;3.63;;;1.50;;
68608;SDS011;55581;46.718;7.690;2023-07-29T13:51:38;3.70;;;1.40;;
68608;SDS011;55581;46.718;7.690;2023-07-29T13:54:04;3.70;;;1.50;;
68608;SDS011;55581;46.718;7.690;2023-07-29T13:56:29;3.97;;;1.33;;
68608;SDS011;55581;46.718;7.690;2023-07-29T13:58:54;6.43;;;3.43;;
68608;SDS011;55581;46.718;7.690;2023-07-29T14:01:20;5.57;;;2.83;;
68608;SDS011;55581;46.718;7.690;2023-07-29T14:03:45;11.20;;;5.20;;
68608;SDS011;55581;46.718;7.690;2023-07-29T14:06:11;21.33;;;10.70;;
68608;SDS011;55581;46.718;7.690;2023-07-29T14:08:36;7.67;;;3.57;;
68608;SDS011;55581;46.718;7.690;2023-07-29T14:11:01;4.90;;;2.43;;
68608;SDS011;55581;46.718;7.690;2023-07-29T14:13:27;5.57;;;2.20;;
68608;SDS011;55581;46.718;7.690;2023-07-29T14:15:52;4.47;;;1.77;;
68608;SDS011;55581;46.718;7.690;2023-07-29T14:18:17;5.30;;;1.73;;
68608;SDS011;55581;46.718;7.690;2023-07-29T14:20:43;4.57;;;2.00;;
68608;SDS011;55581;46.718;7.690;2023-07-29T14:23:08;4.57;;;1.97;;
68608;SDS011;55581;46.718;7.690;2023-07-29T14:25:34;4.50;;;1.67;;
68608;SDS011;55581;46.718;7.690;2023-07-29T14:27:59;5.03;;;2.30;;
68608;SDS011;55581;46.718;7.690;2023-07-29T14:30:24;4.33;;;1.70;;
68608;SDS011;55581;46.718;7.690;2023-07-29T14:32:52;3.87;;;1.80;;
68608;SDS011;55581;46.718;7.690;2023-07-29T14:35:18;5.00;;;1.80;;
68608;SDS011;55581;46.718;7.690;2023-07-29T14:37:46;4.10;;;1.55;;
68608;SDS011;55581;46.718;7.690;2023-07-29T14:40:11;5.77;;;1.90;;
68608;SDS011;55581;46.718;7.690;2023-07-29T14:42:36;3.60;;;1.40;;
68608;SDS011;55581;46.718;7.690;2023-07-29T14:45:02;6.80;;;2.07;;
68608;SDS011;55581;46.718;7.690;2023-07-29T14:47:27;4.10;;;1.67;;
68608;SDS011;55581;46.718;7.690;2023-07-29T14:49:52;5.07;;;2.30;;
68608;SDS011;55581;46.718;7.690;2023-07-29T14:52:18;4.83;;;2.17;;
68608;SDS011;55581;46.718;7.690;2023-07-29T14:54:43;4.80;;;1.40;;
68608;SDS011;55581;46.718;7.690;2023-07-29T14:57:09;4.70;;;1.97;;
68608;SDS011;55581;46.718;7.690;2023-07-29T14:59:35;5.10;;;2.13;;
68608;SDS011;55581;46.718;7.690;2023-07-29T15:02:00;3.67;;;1.80;;
68608;SDS011;55581;46.718;7.690;2023-07-29T15:04:28;5.47;;;2.33;;